TimeCDT,TemperatureF,Dew PointF,Humidity,Sea Level PressureIn,VisibilityMPH,Wind Direction,Wind SpeedMPH,Gust SpeedMPH,PrecipitationIn,Events,Conditions,WindDirDegrees,DateUTC
12:56 AM,64.9,59.0,81,29.83,10.0,Calm,Calm,-,N/A,,Clear,0,2013-09-26 05:56:00
1:56 AM,64.0,59.0,84,29.83,10.0,Calm,Calm,-,N/A,,Clear,0,2013-09-26 06:56:00
2:56 AM,64.0,59.0,84,29.83,10.0,Calm,Calm,-,N/A,,Clear,0,2013-09-26 07:56:00
3:56 AM,63.0,59.0,87,29.83,10.0,Calm,Calm,-,N/A,,Clear,0,2013-09-26 08:56:00
4:56 AM,62.1,57.9,86,29.84,10.0,Calm,Calm,-,N/A,,Clear,0,2013-09-26 09:56:00
5:56 AM,62.1,57.9,86,29.86,10.0,Calm,Calm,-,N/A,,Clear,0,2013-09-26 10:56:00
6:56 AM,61.0,57.9,90,29.88,10.0,Calm,Calm,-,N/A,,Clear,0,2013-09-26 11:56:00
7:56 AM,64.0,60.1,87,29.90,10.0,Calm,Calm,-,N/A,,Clear,0,2013-09-26 12:56:00
8:56 AM,72.0,64.0,76,29.91,10.0,SE,3.5,-,N/A,,Clear,140,2013-09-26 13:56:00
9:56 AM,80.1,60.1,50,29.92,10.0,South,13.8,-,N/A,,Clear,170,2013-09-26 14:56:00
10:56 AM,84.0,59.0,43,29.93,10.0,SSE,8.1,-,N/A,,Clear,150,2013-09-26 15:56:00
11:56 AM,88.0,57.0,35,29.92,10.0,SSE,11.5,16.1,N/A,,Clear,160,2013-09-26 16:56:00
12:56 PM,89.1,53.1,29,29.91,10.0,Variable,5.8,-,N/A,,Clear,0,2013-09-26 17:56:00
1:56 PM,91.0,53.1,27,29.88,10.0,SSE,13.8,-,N/A,,Clear,160,2013-09-26 18:56:00
2:56 PM,93.0,55.0,28,29.86,10.0,East,10.4,-,N/A,,Clear,80,2013-09-26 19:56:00
3:56 PM,91.9,55.0,29,29.86,10.0,East,10.4,-,N/A,,Clear,100,2013-09-26 20:56:00
4:56 PM,91.9,54.0,27,29.86,10.0,ENE,9.2,-,N/A,,Clear,70,2013-09-26 21:56:00
5:56 PM,90.0,55.9,31,29.86,10.0,East,5.8,-,N/A,,Clear,100,2013-09-26 22:56:00
6:56 PM,82.0,57.9,44,29.87,10.0,ESE,5.8,-,N/A,,Clear,120,2013-09-26 23:56:00
7:56 PM,78.1,59.0,52,29.88,10.0,ESE,3.5,-,N/A,,Clear,120,2013-09-27 00:56:00
8:56 PM,75.0,60.1,60,29.89,10.0,East,5.8,-,N/A,,Clear,90,2013-09-27 01:56:00
9:56 PM,75.9,62.1,62,29.90,10.0,ESE,4.6,-,N/A,,Clear,120,2013-09-27 02:56:00
10:56 PM,73.9,62.1,66,29.90,10.0,ESE,4.6,-,N/A,,Clear,120,2013-09-27 03:56:00
11:56 PM,73.9,61.0,64,29.91,10.0,ESE,3.5,-,N/A,,Clear,110,2013-09-27 04:56:00